createdAt,value
2022-11-27T00:00:09.639Z,990.32
2022-11-27T00:01:09.554Z,990.31
2022-11-27T00:02:09.550Z,990.29
2022-11-27T00:03:09.594Z,990.26
2022-11-27T00:04:09.327Z,990.23
2022-11-27T00:05:09.217Z,990.22
2022-11-27T00:06:09.126Z,990.21
2022-11-27T00:07:09.044Z,990.21
2022-11-27T00:08:08.960Z,990.19
2022-11-27T00:09:08.876Z,990.20
2022-11-27T00:10:08.785Z,990.21
2022-11-27T00:11:08.708Z,990.17
2022-11-27T00:12:08.621Z,990.16
2022-11-27T00:13:08.535Z,990.15
2022-11-27T00:14:08.448Z,990.15
2022-11-27T00:15:08.362Z,990.16
2022-11-27T00:16:08.290Z,990.11
2022-11-27T00:17:08.189Z,990.10
2022-11-27T00:18:08.103Z,990.11
2022-11-27T00:19:08.022Z,990.06
2022-11-27T00:20:07.935Z,990.01
2022-11-27T00:21:07.848Z,989.99
2022-11-27T00:22:07.763Z,989.95
2022-11-27T00:23:07.685Z,989.92
2022-11-27T00:24:07.591Z,989.86
2022-11-27T00:25:07.510Z,989.90
2022-11-27T00:26:07.433Z,989.88
2022-11-27T00:27:07.339Z,989.89
2022-11-27T00:28:07.258Z,989.87
2022-11-27T00:29:07.197Z,989.82
2022-11-27T00:30:07.084Z,989.80
2022-11-27T00:31:07.052Z,989.79
2022-11-27T00:32:06.914Z,989.74
2022-11-27T00:33:06.828Z,989.76
2022-11-27T00:34:06.747Z,989.72
2022-11-27T00:35:06.663Z,989.75
2022-11-27T00:36:06.574Z,989.73
2022-11-27T00:37:06.486Z,989.72
2022-11-27T00:38:06.402Z,989.71
2022-11-27T00:39:06.311Z,989.74
2022-11-27T00:40:06.233Z,989.70
2022-11-27T00:41:06.147Z,989.69
2022-11-27T00:42:06.065Z,989.66
2022-11-27T00:43:05.974Z,989.67
2022-11-27T00:44:05.888Z,989.64
2022-11-27T00:45:05.801Z,989.66
2022-11-27T00:46:05.815Z,989.65
2022-11-27T00:47:05.745Z,989.66
2022-11-27T00:48:05.544Z,989.65
2022-11-27T00:49:05.460Z,989.64
2022-11-27T00:50:05.381Z,989.64
2022-11-27T00:51:05.289Z,989.61
2022-11-27T00:52:05.205Z,989.62
2022-11-27T00:53:05.119Z,989.57
2022-11-27T00:54:05.038Z,989.66
2022-11-27T00:55:04.951Z,989.67
2022-11-27T00:56:04.864Z,989.66
2022-11-27T00:57:04.778Z,989.68
2022-11-27T00:58:04.692Z,989.66
2022-11-27T00:59:04.603Z,989.67
2022-11-27T01:00:04.523Z,989.69
2022-11-27T01:01:04.441Z,989.70
2022-11-27T01:02:04.435Z,989.71
2022-11-27T01:03:04.309Z,989.73
2022-11-27T01:04:04.180Z,989.75
2022-11-27T01:05:04.095Z,989.73
2022-11-27T01:06:04.010Z,989.71
2022-11-27T01:07:03.921Z,989.73
2022-11-27T01:08:03.864Z,989.72
2022-11-27T01:09:03.755Z,989.71
2022-11-27T01:10:03.666Z,989.68
2022-11-27T01:11:03.580Z,989.68
2022-11-27T01:12:03.498Z,989.67
2022-11-27T01:13:03.414Z,989.67
2022-11-27T01:14:03.327Z,989.66
2022-11-27T01:15:03.249Z,989.64
2022-11-27T01:16:03.208Z,989.66
2022-11-27T01:17:03.078Z,989.65
2022-11-27T01:18:02.983Z,989.61
2022-11-27T01:19:02.896Z,989.57
2022-11-27T01:20:02.816Z,989.53
2022-11-27T01:21:02.737Z,989.55
2022-11-27T01:22:02.643Z,989.54
2022-11-27T01:23:02.555Z,989.54
2022-11-27T01:24:02.472Z,989.51
2022-11-27T01:25:02.380Z,989.53
2022-11-27T01:26:02.307Z,989.53
2022-11-27T01:27:02.211Z,989.53
2022-11-27T01:28:02.129Z,989.49
2022-11-27T01:29:02.040Z,989.49
2022-11-27T01:30:01.962Z,989.54
2022-11-27T01:31:01.896Z,989.51
2022-11-27T01:32:01.789Z,989.50
2022-11-27T01:33:01.782Z,989.49
2022-11-27T01:34:01.618Z,989.51
2022-11-27T01:35:01.526Z,989.42
2022-11-27T01:36:01.447Z,989.42
2022-11-27T01:37:01.359Z,989.45
2022-11-27T01:38:01.269Z,989.40
2022-11-27T01:39:01.185Z,989.41
2022-11-27T01:40:01.100Z,989.39
2022-11-27T01:41:01.016Z,989.40
2022-11-27T01:42:00.928Z,989.42
2022-11-27T01:43:00.843Z,989.44
2022-11-27T01:44:00.760Z,989.41
2022-11-27T01:45:00.671Z,989.38
2022-11-27T01:46:00.640Z,989.38
2022-11-27T01:47:00.617Z,989.37
2022-11-27T01:48:00.410Z,989.38
2022-11-27T01:49:00.327Z,989.29
2022-11-27T01:50:00.248Z,989.25
2022-11-27T01:51:00.157Z,989.29
2022-11-27T01:52:00.076Z,989.30
2022-11-27T01:52:59.986Z,989.31
2022-11-27T01:53:59.897Z,989.26
2022-11-27T01:54:59.815Z,989.25
2022-11-27T01:55:59.726Z,989.24
2022-11-27T01:56:59.639Z,989.25
2022-11-27T01:57:59.557Z,989.24
2022-11-27T01:58:59.467Z,989.23
2022-11-27T01:59:59.388Z,989.22
2022-11-27T02:00:59.298Z,989.21
2022-11-27T02:01:59.281Z,989.19
2022-11-27T02:02:59.334Z,989.19
2022-11-27T02:03:59.042Z,989.18
2022-11-27T02:04:58.994Z,989.14
2022-11-27T02:05:58.872Z,989.10
2022-11-27T02:06:58.789Z,989.03
2022-11-27T02:07:58.747Z,989.07
2022-11-27T02:08:58.611Z,989.07
2022-11-27T02:09:58.529Z,989.06
2022-11-27T02:10:58.440Z,989.04
2022-11-27T02:11:58.360Z,989.03
2022-11-27T02:12:58.273Z,989.02
2022-11-27T02:13:58.186Z,989.05
2022-11-27T02:14:58.105Z,989.02
2022-11-27T02:15:58.047Z,989.01
2022-11-27T02:16:57.924Z,988.98
2022-11-27T02:17:57.845Z,988.95
2022-11-27T02:18:57.755Z,988.92
2022-11-27T02:19:57.672Z,988.89
2022-11-27T02:20:57.582Z,988.85
2022-11-27T02:21:57.505Z,988.85
2022-11-27T02:22:57.414Z,988.86
2022-11-27T02:23:57.328Z,988.80
2022-11-27T02:24:57.246Z,988.80
2022-11-27T02:25:57.159Z,988.81
2022-11-27T02:26:57.071Z,988.80
2022-11-27T02:27:56.983Z,988.84
2022-11-27T02:28:56.896Z,988.83
2022-11-27T02:29:56.814Z,988.83
2022-11-27T02:30:56.766Z,988.78
2022-11-27T02:31:56.644Z,988.80
2022-11-27T02:32:56.556Z,988.78
2022-11-27T02:33:56.471Z,988.79
2022-11-27T02:34:56.393Z,988.79
2022-11-27T02:35:56.300Z,988.77
2022-11-27T02:36:56.213Z,988.75
2022-11-27T02:37:56.130Z,988.79
2022-11-27T02:38:56.041Z,988.83
2022-11-27T02:39:55.959Z,988.89
2022-11-27T02:40:55.876Z,988.91
2022-11-27T02:41:55.788Z,988.91
2022-11-27T02:42:55.796Z,988.89
2022-11-27T02:43:55.611Z,988.86
2022-11-27T02:44:55.529Z,988.86
2022-11-27T02:45:55.443Z,988.83
2022-11-27T02:46:55.425Z,988.82
2022-11-27T02:47:55.272Z,988.82
2022-11-27T02:48:55.186Z,988.80
2022-11-27T02:49:55.097Z,988.83
2022-11-27T02:50:55.010Z,988.83
2022-11-27T02:51:54.926Z,988.82
2022-11-27T02:52:54.840Z,988.78
2022-11-27T02:53:54.764Z,988.78
2022-11-27T02:54:54.666Z,988.76
2022-11-27T02:55:54.583Z,988.78
2022-11-27T02:56:54.497Z,988.75
2022-11-27T02:57:54.413Z,988.73
2022-11-27T02:58:54.425Z,988.72
2022-11-27T02:59:54.242Z,988.68
2022-11-27T03:00:54.157Z,988.66
2022-11-27T03:01:54.105Z,988.67
2022-11-27T03:02:54.157Z,988.61
2022-11-27T03:03:53.906Z,988.64
2022-11-27T03:04:53.822Z,988.59
2022-11-27T03:05:53.731Z,988.57
2022-11-27T03:06:53.647Z,988.53
2022-11-27T03:07:53.595Z,988.53
2022-11-27T03:08:53.486Z,988.49
2022-11-27T03:09:53.382Z,988.45
2022-11-27T03:10:53.296Z,988.48
2022-11-27T03:11:53.217Z,988.42
2022-11-27T03:12:53.135Z,988.40
2022-11-27T03:13:53.046Z,988.41
2022-11-27T03:14:53.057Z,988.37
2022-11-27T03:15:52.923Z,988.36
2022-11-27T03:16:52.780Z,988.34
2022-11-27T03:17:52.699Z,988.33
2022-11-27T03:18:52.616Z,988.31
2022-11-27T03:19:52.523Z,988.32
2022-11-27T03:20:52.442Z,988.35
2022-11-27T03:21:52.353Z,988.36
2022-11-27T03:22:52.272Z,988.37
2022-11-27T03:23:52.183Z,988.35
2022-11-27T03:24:52.096Z,988.33
2022-11-27T03:25:52.013Z,988.35
2022-11-27T03:26:51.922Z,988.30
2022-11-27T03:27:51.842Z,988.30
2022-11-27T03:28:51.768Z,988.29
2022-11-27T03:29:51.666Z,988.26
2022-11-27T03:30:51.733Z,988.30
2022-11-27T03:31:51.495Z,988.27
2022-11-27T03:32:51.411Z,988.27
2022-11-27T03:33:51.323Z,988.31
2022-11-27T03:34:51.237Z,988.29
2022-11-27T03:35:51.155Z,988.30
2022-11-27T03:36:51.068Z,988.25
2022-11-27T03:37:50.981Z,988.26
2022-11-27T03:38:50.890Z,988.23
2022-11-27T03:39:50.807Z,988.25
2022-11-27T03:40:50.722Z,988.24
2022-11-27T03:41:50.636Z,988.21
2022-11-27T03:42:50.551Z,988.17
2022-11-27T03:43:50.464Z,988.18
2022-11-27T03:44:50.378Z,988.18
2022-11-27T03:45:50.300Z,988.16
2022-11-27T03:46:50.357Z,988.13
2022-11-27T03:47:50.220Z,988.11
2022-11-27T03:48:50.045Z,988.11
2022-11-27T03:49:49.949Z,988.09
2022-11-27T03:50:49.874Z,988.11
2022-11-27T03:51:49.782Z,988.13
2022-11-27T03:52:49.695Z,988.16
2022-11-27T03:53:49.605Z,988.14
2022-11-27T03:54:49.517Z,988.17
2022-11-27T03:55:49.436Z,988.13
2022-11-27T03:56:49.349Z,988.18
2022-11-27T03:57:49.261Z,988.15
2022-11-27T03:58:49.170Z,988.17
2022-11-27T03:59:49.090Z,988.13
2022-11-27T04:00:49.001Z,988.14
2022-11-27T04:01:48.980Z,988.12
2022-11-27T04:02:48.921Z,988.13
2022-11-27T04:03:48.802Z,988.14
2022-11-27T04:04:48.659Z,988.15
2022-11-27T04:05:48.578Z,988.16
2022-11-27T04:06:48.485Z,988.19
2022-11-27T04:07:48.421Z,988.20
2022-11-27T04:08:48.313Z,988.21
2022-11-27T04:09:48.233Z,988.22
2022-11-27T04:10:48.145Z,988.25
2022-11-27T04:11:48.056Z,988.24
2022-11-27T04:12:47.975Z,988.23
2022-11-27T04:13:47.885Z,988.25
2022-11-27T04:14:47.795Z,988.28
2022-11-27T04:15:47.748Z,988.30
2022-11-27T04:16:47.629Z,988.33
2022-11-27T04:17:47.543Z,988.34
2022-11-27T04:18:52.702Z,988.35
2022-11-27T04:19:47.466Z,988.36
2022-11-27T04:20:47.282Z,988.35
2022-11-27T04:21:47.203Z,988.34
2022-11-27T04:22:47.111Z,988.30
2022-11-27T04:23:47.025Z,988.30
2022-11-27T04:24:46.938Z,988.35
2022-11-27T04:25:46.856Z,988.33
2022-11-27T04:26:46.789Z,988.32
2022-11-27T04:27:46.684Z,988.35
2022-11-27T04:28:46.594Z,988.35
2022-11-27T04:29:46.510Z,988.38
2022-11-27T04:30:46.425Z,988.36
2022-11-27T04:31:46.432Z,988.34
2022-11-27T04:32:46.251Z,988.34
2022-11-27T04:33:46.168Z,988.32
2022-11-27T04:34:46.076Z,988.27
2022-11-27T04:35:46.091Z,988.22
2022-11-27T04:36:45.908Z,988.26
2022-11-27T04:37:45.826Z,988.23
2022-11-27T04:38:45.732Z,988.21
2022-11-27T04:39:45.650Z,988.22
2022-11-27T04:40:45.570Z,988.22
2022-11-27T04:41:45.476Z,988.23
2022-11-27T04:42:45.392Z,988.21
2022-11-27T04:43:45.309Z,988.18
2022-11-27T04:44:45.220Z,988.20
2022-11-27T04:45:45.135Z,988.18
2022-11-27T04:46:45.086Z,988.16
2022-11-27T04:47:44.958Z,988.16
2022-11-27T04:48:44.877Z,988.19
2022-11-27T04:49:44.788Z,988.21
2022-11-27T04:50:44.707Z,988.22
2022-11-27T04:51:44.710Z,988.23
2022-11-27T04:52:44.536Z,988.23
2022-11-27T04:53:44.446Z,988.24
2022-11-27T04:54:44.362Z,988.27
2022-11-27T04:55:44.270Z,988.32
2022-11-27T04:56:44.195Z,988.36
2022-11-27T04:57:44.104Z,988.37
2022-11-27T04:58:44.021Z,988.41
2022-11-27T04:59:43.935Z,988.40
2022-11-27T05:00:43.976Z,988.41
2022-11-27T05:01:43.760Z,988.41
2022-11-27T05:02:43.725Z,988.37
2022-11-27T05:03:43.584Z,988.43
2022-11-27T05:04:43.508Z,988.39
2022-11-27T05:05:43.415Z,988.40
2022-11-27T05:06:43.326Z,988.36
2022-11-27T05:07:43.422Z,988.39
2022-11-27T05:08:43.161Z,988.36
2022-11-27T05:09:43.066Z,988.33
2022-11-27T05:10:42.986Z,988.35
2022-11-27T05:11:42.899Z,988.29
2022-11-27T05:12:42.815Z,988.27
2022-11-27T05:13:42.726Z,988.27
2022-11-27T05:14:42.916Z,988.26
2022-11-27T05:15:42.552Z,988.22
2022-11-27T05:16:42.468Z,988.19
2022-11-27T05:17:42.381Z,988.21
2022-11-27T05:18:42.297Z,988.18
2022-11-27T05:19:42.206Z,988.20
2022-11-27T05:20:42.124Z,988.19
2022-11-27T05:21:42.038Z,988.16
2022-11-27T05:22:41.950Z,988.16
2022-11-27T05:23:41.958Z,988.14
2022-11-27T05:24:42.100Z,988.16
2022-11-27T05:25:41.692Z,988.13
2022-11-27T05:26:41.607Z,988.16
2022-11-27T05:27:41.518Z,988.16
2022-11-27T05:28:41.435Z,988.17
2022-11-27T05:29:41.353Z,988.19
2022-11-27T05:30:41.263Z,988.16
2022-11-27T05:31:41.328Z,988.19
2022-11-27T05:32:41.095Z,988.18
2022-11-27T05:33:41.007Z,988.20
2022-11-27T05:34:41.192Z,988.24
2022-11-27T05:35:40.833Z,988.27
2022-11-27T05:36:40.748Z,988.30
2022-11-27T05:37:40.659Z,988.28
2022-11-27T05:38:40.571Z,988.30
2022-11-27T05:39:40.585Z,988.25
2022-11-27T05:40:40.404Z,988.21
2022-11-27T05:41:40.315Z,988.23
2022-11-27T05:42:40.229Z,988.22
2022-11-27T05:43:40.144Z,988.28
2022-11-27T05:44:40.339Z,988.30
2022-11-27T05:45:39.973Z,988.27
2022-11-27T05:46:39.951Z,988.27
2022-11-27T05:47:39.802Z,988.28
2022-11-27T05:48:39.714Z,988.28
2022-11-27T05:49:39.629Z,988.25
2022-11-27T05:50:39.541Z,988.27
2022-11-27T05:51:39.455Z,988.29
2022-11-27T05:52:39.369Z,988.25
2022-11-27T05:53:39.283Z,988.31
2022-11-27T05:54:39.418Z,988.31
2022-11-27T05:55:39.227Z,988.30
2022-11-27T05:56:39.026Z,988.32
2022-11-27T05:57:38.938Z,988.30
2022-11-27T05:58:38.854Z,988.33
2022-11-27T05:59:38.775Z,988.29
2022-11-27T06:00:38.682Z,988.31
2022-11-27T06:01:38.635Z,988.27
2022-11-27T06:02:38.634Z,988.25
2022-11-27T06:03:38.446Z,988.24
2022-11-27T06:04:38.694Z,988.21
2022-11-27T06:05:38.251Z,988.21
2022-11-27T06:06:38.165Z,988.24
2022-11-27T06:07:38.197Z,988.26
2022-11-27T06:08:37.992Z,988.29
2022-11-27T06:09:37.921Z,988.27
2022-11-27T06:10:37.821Z,988.31
2022-11-27T06:11:37.829Z,988.30
2022-11-27T06:12:37.655Z,988.28
2022-11-27T06:13:37.569Z,988.27
2022-11-27T06:14:37.514Z,988.24
2022-11-27T06:15:37.394Z,988.24
2022-11-27T06:16:37.415Z,988.23
2022-11-27T06:17:37.220Z,988.27
2022-11-27T06:18:37.138Z,988.26
2022-11-27T06:19:37.044Z,988.28
2022-11-27T06:20:42.217Z,988.25
2022-11-27T06:21:36.875Z,988.20
2022-11-27T06:22:36.789Z,988.24
2022-11-27T06:23:36.708Z,988.23
2022-11-27T06:24:36.615Z,988.20
2022-11-27T06:25:36.528Z,988.25
2022-11-27T06:26:36.453Z,988.22
2022-11-27T06:27:36.468Z,988.22
2022-11-27T06:28:36.270Z,988.16
2022-11-27T06:29:36.188Z,988.19
2022-11-27T06:30:36.100Z,988.15
2022-11-27T06:31:36.049Z,988.11
2022-11-27T06:32:35.927Z,988.07
2022-11-27T06:33:35.842Z,988.05
2022-11-27T06:34:35.763Z,988.08
2022-11-27T06:35:35.668Z,988.04
2022-11-27T06:36:35.583Z,988.04
2022-11-27T06:37:35.496Z,988.06
2022-11-27T06:38:35.415Z,988.09
2022-11-27T06:39:35.325Z,988.14
2022-11-27T06:40:35.239Z,988.15
2022-11-27T06:41:35.151Z,988.13
2022-11-27T06:42:35.065Z,988.15
2022-11-27T06:43:35.081Z,988.13
2022-11-27T06:44:34.895Z,988.11
2022-11-27T06:45:34.855Z,988.10
2022-11-27T06:46:34.719Z,988.10
2022-11-27T06:47:34.632Z,988.10
2022-11-27T06:48:34.551Z,988.11
2022-11-27T06:49:34.459Z,988.10
2022-11-27T06:50:34.378Z,988.05
2022-11-27T06:51:34.292Z,988.04
2022-11-27T06:52:38.805Z,988.07
2022-11-27T06:53:34.115Z,988.02
2022-11-27T06:54:34.031Z,988.02
2022-11-27T06:55:33.954Z,988.00
2022-11-27T06:56:33.864Z,987.97
2022-11-27T06:57:33.774Z,987.96
2022-11-27T06:58:33.687Z,987.88
2022-11-27T06:59:33.700Z,987.86
2022-11-27T07:00:33.566Z,987.87
2022-11-27T07:01:33.492Z,987.85
2022-11-27T07:02:33.432Z,987.85
2022-11-27T07:03:33.262Z,987.85
2022-11-27T07:04:33.169Z,987.85
2022-11-27T07:05:33.089Z,987.85
2022-11-27T07:06:32.997Z,987.77
2022-11-27T07:07:32.959Z,987.76
2022-11-27T07:08:32.825Z,987.78
2022-11-27T07:09:32.738Z,987.76
2022-11-27T07:10:32.656Z,987.72
2022-11-27T07:11:32.571Z,987.75
2022-11-27T07:12:32.488Z,987.72
2022-11-27T07:13:32.397Z,987.70
2022-11-27T07:14:32.307Z,987.68
2022-11-27T07:15:32.313Z,987.64
2022-11-27T07:16:32.236Z,987.66
2022-11-27T07:17:32.054Z,987.65
2022-11-27T07:18:31.967Z,987.66
2022-11-27T07:19:31.874Z,987.68
2022-11-27T07:20:31.790Z,987.63
2022-11-27T07:21:31.708Z,987.62
2022-11-27T07:22:31.620Z,987.63
2022-11-27T07:23:31.533Z,987.67
2022-11-27T07:24:31.449Z,987.67
2022-11-27T07:25:31.357Z,987.68
2022-11-27T07:26:31.280Z,987.68
2022-11-27T07:27:31.186Z,987.69
2022-11-27T07:28:31.105Z,987.66
2022-11-27T07:29:31.017Z,987.64
2022-11-27T07:30:30.929Z,987.67
2022-11-27T07:31:36.922Z,987.63
2022-11-27T07:32:30.864Z,987.62
2022-11-27T07:33:30.667Z,987.56
2022-11-27T07:34:30.584Z,987.63
2022-11-27T07:35:30.502Z,987.59
2022-11-27T07:36:30.417Z,987.57
2022-11-27T07:37:30.325Z,987.65
2022-11-27T07:38:30.240Z,987.61
2022-11-27T07:40:00.338Z,987.61
2022-11-27T07:40:30.066Z,987.58
2022-11-27T07:41:33.909Z,987.54
2022-11-27T07:42:38.054Z,987.55
2022-11-27T07:43:29.806Z,987.54
2022-11-27T07:44:29.723Z,987.52
2022-11-27T07:45:29.674Z,987.53
2022-11-27T07:46:29.554Z,987.53
2022-11-27T07:47:29.467Z,987.52
2022-11-27T07:48:29.474Z,987.49
2022-11-27T07:49:29.292Z,987.47
2022-11-27T07:50:29.209Z,987.51
2022-11-27T07:51:29.122Z,987.50
2022-11-27T07:52:29.041Z,987.47
2022-11-27T07:53:28.945Z,987.45
2022-11-27T07:54:28.858Z,987.45
2022-11-27T07:55:28.775Z,987.47
2022-11-27T07:56:28.697Z,987.50
2022-11-27T07:57:28.602Z,987.49
2022-11-27T07:58:28.517Z,987.52
2022-11-27T07:59:28.429Z,987.55
2022-11-27T08:00:28.348Z,987.53
2022-11-27T08:01:28.337Z,987.51
2022-11-27T08:02:28.174Z,987.47
2022-11-27T08:03:28.089Z,987.51
2022-11-27T08:04:28.151Z,987.54
2022-11-27T08:05:27.916Z,987.56
2022-11-27T08:06:27.828Z,987.50
2022-11-27T08:07:27.779Z,987.54
2022-11-27T08:08:27.664Z,987.54
2022-11-27T08:09:27.574Z,987.56
2022-11-27T08:10:27.542Z,987.59
2022-11-27T08:11:27.400Z,987.55
2022-11-27T08:12:27.323Z,987.57
2022-11-27T08:13:27.235Z,987.57
2022-11-27T08:14:27.144Z,987.56
2022-11-27T08:15:27.060Z,987.58
2022-11-27T08:16:27.006Z,987.55
2022-11-27T08:17:26.890Z,987.57
2022-11-27T08:18:26.800Z,987.59
2022-11-27T08:19:26.712Z,987.55
2022-11-27T08:20:26.736Z,987.52
2022-11-27T08:21:26.543Z,987.54
2022-11-27T08:22:26.456Z,987.52
2022-11-27T08:23:26.366Z,987.54
2022-11-27T08:24:26.284Z,987.55
2022-11-27T08:25:26.198Z,987.55
2022-11-27T08:26:26.110Z,987.58
2022-11-27T08:27:26.030Z,987.56
2022-11-27T08:28:25.941Z,987.58
2022-11-27T08:29:29.885Z,987.59
2022-11-27T08:30:25.883Z,987.59
2022-11-27T08:31:25.724Z,987.62
2022-11-27T08:32:25.599Z,987.60
2022-11-27T08:33:25.509Z,987.58
2022-11-27T08:34:25.429Z,987.59
2022-11-27T08:35:25.335Z,987.55
2022-11-27T08:36:25.364Z,987.57
2022-11-27T08:37:25.165Z,987.57
2022-11-27T08:38:25.084Z,987.59
2022-11-27T08:39:24.995Z,987.62
2022-11-27T08:40:24.960Z,987.59
2022-11-27T08:41:24.829Z,987.62
2022-11-27T08:42:24.766Z,987.57
2022-11-27T08:43:24.651Z,987.57
2022-11-27T08:44:24.569Z,987.54
2022-11-27T08:45:24.539Z,987.53
2022-11-27T08:46:24.395Z,987.52
2022-11-27T08:47:24.311Z,987.53
2022-11-27T08:48:24.224Z,987.49
2022-11-27T08:49:24.139Z,987.52
2022-11-27T08:50:24.068Z,987.57
2022-11-27T08:51:23.972Z,987.54
2022-11-27T08:52:23.980Z,987.53
2022-11-27T08:53:23.797Z,987.59
2022-11-27T08:54:23.711Z,987.57
2022-11-27T08:55:23.622Z,987.54
2022-11-27T08:56:23.536Z,987.52
2022-11-27T08:57:23.455Z,987.51
2022-11-27T08:58:23.367Z,987.54
2022-11-27T08:59:23.282Z,987.47
2022-11-27T09:00:27.709Z,987.49
2022-11-27T09:01:23.212Z,987.40
2022-11-27T09:02:23.032Z,987.39
2022-11-27T09:03:22.942Z,987.34
2022-11-27T09:04:22.871Z,987.34
2022-11-27T09:05:22.770Z,987.32
2022-11-27T09:06:22.684Z,987.38
2022-11-27T09:07:22.658Z,987.36
2022-11-27T09:08:22.607Z,987.39
2022-11-27T09:09:22.429Z,987.39
2022-11-27T09:10:22.341Z,987.37
2022-11-27T09:11:22.258Z,987.40
2022-11-27T09:12:22.171Z,987.42
2022-11-27T09:13:22.100Z,987.45
2022-11-27T09:14:21.997Z,987.43
2022-11-27T09:15:21.914Z,987.42
2022-11-27T09:16:21.880Z,987.48
2022-11-27T09:17:21.745Z,987.44
2022-11-27T09:18:21.650Z,987.43
2022-11-27T09:19:21.570Z,987.46
2022-11-27T09:20:21.487Z,987.43
2022-11-27T09:21:21.398Z,987.48
2022-11-27T09:22:21.310Z,987.50
2022-11-27T09:23:21.229Z,987.48
2022-11-27T09:24:21.238Z,987.49
2022-11-27T09:25:21.065Z,987.51
2022-11-27T09:26:20.967Z,987.51
2022-11-27T09:27:20.899Z,987.57
2022-11-27T09:28:20.811Z,987.53
2022-11-27T09:29:20.716Z,987.50
2022-11-27T09:30:20.624Z,987.49
2022-11-27T09:31:20.544Z,987.40
2022-11-27T09:32:20.523Z,987.45
2022-11-27T09:33:20.373Z,987.43
2022-11-27T09:34:20.284Z,987.42
2022-11-27T09:35:20.283Z,987.42
2022-11-27T09:36:20.112Z,987.34
2022-11-27T09:37:20.049Z,987.30
2022-11-27T09:38:19.942Z,987.35
2022-11-27T09:39:19.857Z,987.31
2022-11-27T09:40:19.864Z,987.27
2022-11-27T09:41:19.689Z,987.33
2022-11-27T09:42:19.603Z,987.27
2022-11-27T09:43:19.515Z,987.27
2022-11-27T09:44:19.428Z,987.30
2022-11-27T09:45:19.344Z,987.26
2022-11-27T09:46:19.297Z,987.21
2022-11-27T09:47:19.178Z,987.20
2022-11-27T09:48:19.091Z,987.17
2022-11-27T09:49:19.006Z,987.16
2022-11-27T09:50:18.918Z,987.15
2022-11-27T09:51:18.836Z,987.11
2022-11-27T09:52:18.749Z,987.13
2022-11-27T09:53:18.663Z,987.11
2022-11-27T09:54:18.577Z,987.16
2022-11-27T09:55:18.505Z,987.10
2022-11-27T09:56:18.507Z,987.10
2022-11-27T09:57:18.324Z,987.06
2022-11-27T09:58:18.231Z,987.06
2022-11-27T09:59:18.153Z,987.03
2022-11-27T10:00:18.065Z,986.99
2022-11-27T10:01:18.035Z,986.95
2022-11-27T10:02:18.098Z,986.93
2022-11-27T10:03:17.866Z,986.90
2022-11-27T10:04:17.738Z,986.93
2022-11-27T10:05:18.035Z,986.93
2022-11-27T10:06:17.555Z,986.93
2022-11-27T10:07:17.510Z,986.92
2022-11-27T10:08:17.385Z,986.95
2022-11-27T10:09:17.300Z,986.95
2022-11-27T10:10:17.214Z,986.97
2022-11-27T10:11:17.127Z,986.95
2022-11-27T10:12:17.136Z,986.96
2022-11-27T10:13:16.961Z,987.00
2022-11-27T10:14:16.875Z,986.97
2022-11-27T10:15:16.789Z,987.03
2022-11-27T10:16:16.747Z,987.00
2022-11-27T10:17:16.615Z,986.97
2022-11-27T10:18:16.526Z,986.96
2022-11-27T10:19:16.446Z,986.99
2022-11-27T10:20:16.363Z,987.00
2022-11-27T10:21:16.281Z,986.96
2022-11-27T10:22:19.697Z,986.96
2022-11-27T10:23:16.106Z,986.93
2022-11-27T10:24:16.018Z,986.93
2022-11-27T10:25:15.933Z,986.93
2022-11-27T10:26:15.846Z,986.91
2022-11-27T10:27:15.769Z,986.85
2022-11-27T10:28:15.779Z,986.88
2022-11-27T10:29:15.594Z,986.83
2022-11-27T10:30:15.520Z,986.82
2022-11-27T10:31:15.449Z,986.77
2022-11-27T10:32:46.865Z,986.73
2022-11-27T10:33:15.256Z,986.70
2022-11-27T10:34:15.166Z,986.72
2022-11-27T10:35:15.080Z,986.67
2022-11-27T10:36:14.994Z,986.70
2022-11-27T10:37:14.920Z,986.68
2022-11-27T10:38:14.824Z,986.67
2022-11-27T10:39:14.740Z,986.71
2022-11-27T10:40:14.656Z,986.67
2022-11-27T10:41:28.460Z,986.67
2022-11-27T10:42:14.487Z,986.65
2022-11-27T10:43:14.398Z,986.66
2022-11-27T10:44:14.407Z,986.63
2022-11-27T10:45:14.233Z,986.61
2022-11-27T10:46:14.229Z,986.61
2022-11-27T10:47:14.085Z,986.62
2022-11-27T10:48:13.973Z,986.63
2022-11-27T10:49:13.890Z,986.62
2022-11-27T10:50:13.807Z,986.63
2022-11-27T10:51:13.723Z,986.58
2022-11-27T10:52:13.638Z,986.60
2022-11-27T10:53:13.550Z,986.56
2022-11-27T10:54:13.465Z,986.51
2022-11-27T10:55:13.382Z,986.47
2022-11-27T10:56:13.301Z,986.46
2022-11-27T10:57:13.213Z,986.42
2022-11-27T10:58:13.122Z,986.45
2022-11-27T10:59:13.047Z,986.48
2022-11-27T11:00:13.064Z,986.45
2022-11-27T11:01:12.941Z,986.46
2022-11-27T11:02:12.830Z,986.41
2022-11-27T11:03:12.702Z,986.38
2022-11-27T11:04:36.511Z,986.34
2022-11-27T11:05:34.572Z,986.33
2022-11-27T11:06:20.926Z,986.34
2022-11-27T11:07:12.427Z,986.31
2022-11-27T11:08:12.276Z,986.34
2022-11-27T11:09:12.199Z,986.30
2022-11-27T11:10:12.108Z,986.29
2022-11-27T11:11:12.025Z,986.28
2022-11-27T11:12:11.935Z,986.23
2022-11-27T11:13:11.855Z,986.18
2022-11-27T11:14:11.767Z,986.18
2022-11-27T11:15:11.685Z,986.16
2022-11-27T11:16:14.719Z,986.15
2022-11-27T11:17:11.585Z,986.15
2022-11-27T11:18:11.430Z,986.09
2022-11-27T11:19:11.344Z,986.06
2022-11-27T11:20:11.261Z,986.00
2022-11-27T11:21:11.176Z,985.99
2022-11-27T11:22:14.544Z,985.98
2022-11-27T11:23:11.008Z,985.97
2022-11-27T11:24:10.918Z,985.94
2022-11-27T11:25:10.834Z,985.97
2022-11-27T11:26:10.747Z,986.00
2022-11-27T11:27:10.665Z,986.00
2022-11-27T11:28:10.581Z,985.94
2022-11-27T11:29:10.496Z,985.97
2022-11-27T11:30:10.411Z,985.95
2022-11-27T11:31:10.517Z,985.98
2022-11-27T11:32:10.443Z,985.95
2022-11-27T11:33:10.157Z,985.96
2022-11-27T11:34:10.071Z,985.88
2022-11-27T11:35:09.990Z,985.85
2022-11-27T11:36:09.897Z,985.82
2022-11-27T11:37:09.817Z,985.78
2022-11-27T11:38:09.761Z,985.77
2022-11-27T11:39:09.652Z,985.78
2022-11-27T11:40:14.642Z,985.72
2022-11-27T11:41:09.476Z,985.71
2022-11-27T11:42:09.395Z,985.70
2022-11-27T11:43:09.310Z,985.69
2022-11-27T11:44:09.224Z,985.70
2022-11-27T11:45:09.137Z,985.66
2022-11-27T11:46:09.256Z,985.61
2022-11-27T11:47:08.970Z,985.60
2022-11-27T11:48:08.976Z,985.55
2022-11-27T11:49:08.798Z,985.53
2022-11-27T11:50:08.712Z,985.50
2022-11-27T11:51:08.626Z,985.52
2022-11-27T11:52:08.544Z,985.47
2022-11-27T11:53:08.462Z,985.55
2022-11-27T11:54:08.390Z,985.54
2022-11-27T11:55:08.287Z,985.49
2022-11-27T11:56:08.209Z,985.48
2022-11-27T11:57:08.124Z,985.49
2022-11-27T11:58:08.035Z,985.51
2022-11-27T11:59:07.953Z,985.50
2022-11-27T12:00:07.871Z,985.43
2022-11-27T12:01:37.728Z,985.45
2022-11-27T12:02:07.763Z,985.35
2022-11-27T12:03:07.614Z,985.31
2022-11-27T12:04:07.716Z,985.34
2022-11-27T12:05:07.446Z,985.34
2022-11-27T12:06:07.360Z,985.27
2022-11-27T12:07:07.274Z,985.31
2022-11-27T12:08:07.228Z,985.28
2022-11-27T12:09:07.105Z,985.32
2022-11-27T12:10:07.015Z,985.24
2022-11-27T12:11:06.937Z,985.26
2022-11-27T12:12:06.851Z,985.25
2022-11-27T12:13:06.767Z,985.19
2022-11-27T12:14:06.685Z,985.21
2022-11-27T12:15:06.598Z,985.21
2022-11-27T12:16:06.548Z,985.24
2022-11-27T12:17:06.485Z,985.19
2022-11-27T12:18:06.341Z,985.22
2022-11-27T12:19:06.260Z,985.23
2022-11-27T12:20:06.270Z,985.21
2022-11-27T12:21:06.085Z,985.22
2022-11-27T12:22:06.007Z,985.17
2022-11-27T12:23:05.919Z,985.12
2022-11-27T12:24:05.837Z,985.13
2022-11-27T12:25:05.747Z,985.06
2022-11-27T12:26:05.664Z,985.06
2022-11-27T12:27:05.577Z,985.03